sensor_id;sensor_type;location;lat;lon;timestamp;P1;durP1;ratioP1;P2;durP2;ratioP2
30515;SDS011;17297;54.022;10.760;2022-12-31T00:01:27;4.03;;;3.22;;
30515;SDS011;17297;54.022;10.760;2022-12-31T00:03:54;3.70;;;3.30;;
30515;SDS011;17297;54.022;10.760;2022-12-31T00:08:49;4.03;;;3.05;;
30515;SDS011;17297;54.022;10.760;2022-12-31T00:11:15;3.30;;;3.00;;
30515;SDS011;17297;54.022;10.760;2022-12-31T00:13:41;3.88;;;2.95;;
30515;SDS011;17297;54.022;10.760;2022-12-31T00:16:11;3.67;;;3.30;;
30515;SDS011;17297;54.022;10.760;2022-12-31T00:18:46;4.22;;;3.33;;
30515;SDS011;17297;54.022;10.760;2022-12-31T00:21:13;3.78;;;3.20;;
30515;SDS011;17297;54.022;10.760;2022-12-31T00:23:39;3.63;;;3.28;;
30515;SDS011;17297;54.022;10.760;2022-12-31T00:26:06;4.35;;;3.60;;
30515;SDS011;17297;54.022;10.760;2022-12-31T00:28:38;3.33;;;3.00;;
30515;SDS011;17297;54.022;10.760;2022-12-31T00:31:08;3.55;;;3.25;;
30515;SDS011;17297;54.022;10.760;2022-12-31T00:33:38;4.63;;;4.05;;
30515;SDS011;17297;54.022;10.760;2022-12-31T00:36:06;4.10;;;3.70;;
30515;SDS011;17297;54.022;10.760;2022-12-31T00:38:36;3.30;;;2.92;;
30515;SDS011;17297;54.022;10.760;2022-12-31T00:41:03;4.30;;;3.75;;
30515;SDS011;17297;54.022;10.760;2022-12-31T00:43:29;3.03;;;2.80;;
30515;SDS011;17297;54.022;10.760;2022-12-31T00:45:55;3.35;;;2.92;;
30515;SDS011;17297;54.022;10.760;2022-12-31T00:48:20;3.22;;;2.92;;
30515;SDS011;17297;54.022;10.760;2022-12-31T00:50:46;3.65;;;3.20;;
30515;SDS011;17297;54.022;10.760;2022-12-31T00:53:11;4.93;;;3.85;;
30515;SDS011;17297;54.022;10.760;2022-12-31T00:55:37;4.68;;;3.50;;
30515;SDS011;17297;54.022;10.760;2022-12-31T00:58:02;3.65;;;3.30;;
30515;SDS011;17297;54.022;10.760;2022-12-31T01:00:28;3.47;;;3.17;;
30515;SDS011;17297;54.022;10.760;2022-12-31T01:02:54;3.78;;;3.45;;
30515;SDS011;17297;54.022;10.760;2022-12-31T01:05:19;3.55;;;3.20;;
30515;SDS011;17297;54.022;10.760;2022-12-31T01:07:45;3.55;;;3.17;;
30515;SDS011;17297;54.022;10.760;2022-12-31T01:10:10;3.95;;;3.47;;
30515;SDS011;17297;54.022;10.760;2022-12-31T01:12:36;3.35;;;3.00;;
30515;SDS011;17297;54.022;10.760;2022-12-31T01:15:01;6.07;;;3.30;;
30515;SDS011;17297;54.022;10.760;2022-12-31T01:17:27;3.30;;;3.00;;
30515;SDS011;17297;54.022;10.760;2022-12-31T01:19:53;3.75;;;3.30;;
30515;SDS011;17297;54.022;10.760;2022-12-31T01:22:18;3.42;;;3.08;;
30515;SDS011;17297;54.022;10.760;2022-12-31T01:24:44;3.47;;;3.17;;
30515;SDS011;17297;54.022;10.760;2022-12-31T01:27:09;3.42;;;3.00;;
30515;SDS011;17297;54.022;10.760;2022-12-31T01:29:35;2.65;;;2.40;;
30515;SDS011;17297;54.022;10.760;2022-12-31T01:32:00;4.65;;;3.80;;
30515;SDS011;17297;54.022;10.760;2022-12-31T01:34:26;3.97;;;3.33;;
30515;SDS011;17297;54.022;10.760;2022-12-31T01:36:52;4.22;;;3.53;;
30515;SDS011;17297;54.022;10.760;2022-12-31T01:39:17;4.50;;;3.55;;
30515;SDS011;17297;54.022;10.760;2022-12-31T01:41:44;3.78;;;3.47;;
30515;SDS011;17297;54.022;10.760;2022-12-31T01:51:32;3.10;;;2.90;;
30515;SDS011;17297;54.022;10.760;2022-12-31T01:53:59;5.25;;;4.03;;
30515;SDS011;17297;54.022;10.760;2022-12-31T01:56:29;3.22;;;2.95;;
30515;SDS011;17297;54.022;10.760;2022-12-31T01:58:55;3.47;;;3.17;;
30515;SDS011;17297;54.022;10.760;2022-12-31T02:01:24;3.67;;;3.38;;
30515;SDS011;17297;54.022;10.760;2022-12-31T02:03:55;4.03;;;3.08;;
30515;SDS011;17297;54.022;10.760;2022-12-31T02:06:23;3.17;;;2.85;;
30515;SDS011;17297;54.022;10.760;2022-12-31T02:08:55;3.83;;;3.17;;
30515;SDS011;17297;54.022;10.760;2022-12-31T02:11:24;3.53;;;3.22;;
30515;SDS011;17297;54.022;10.760;2022-12-31T02:13:53;3.50;;;3.20;;
30515;SDS011;17297;54.022;10.760;2022-12-31T02:24:48;5.18;;;3.78;;
30515;SDS011;17297;54.022;10.760;2022-12-31T02:27:32;2.90;;;2.70;;
30515;SDS011;17297;54.022;10.760;2022-12-31T02:30:04;3.30;;;3.00;;
30515;SDS011;17297;54.022;10.760;2022-12-31T02:35:09;3.78;;;3.33;;
30515;SDS011;17297;54.022;10.760;2022-12-31T02:37:39;3.92;;;3.08;;
30515;SDS011;17297;54.022;10.760;2022-12-31T02:40:09;3.38;;;3.03;;
30515;SDS011;17297;54.022;10.760;2022-12-31T02:42:38;4.55;;;3.17;;
30515;SDS011;17297;54.022;10.760;2022-12-31T02:45:04;3.47;;;3.17;;
30515;SDS011;17297;54.022;10.760;2022-12-31T02:47:42;3.70;;;3.38;;
30515;SDS011;17297;54.022;10.760;2022-12-31T02:50:29;4.78;;;3.30;;
30515;SDS011;17297;54.022;10.760;2022-12-31T03:01:19;2.97;;;2.45;;
30515;SDS011;17297;54.022;10.760;2022-12-31T03:04:08;4.18;;;2.90;;
30515;SDS011;17297;54.022;10.760;2022-12-31T03:06:54;3.17;;;2.92;;
30515;SDS011;17297;54.022;10.760;2022-12-31T03:09:22;3.10;;;2.80;;
30515;SDS011;17297;54.022;10.760;2022-12-31T03:11:48;3.08;;;2.78;;
30515;SDS011;17297;54.022;10.760;2022-12-31T03:14:32;2.88;;;2.40;;
30515;SDS011;17297;54.022;10.760;2022-12-31T03:16:57;2.42;;;2.22;;
30515;SDS011;17297;54.022;10.760;2022-12-31T03:19:23;2.83;;;2.63;;
30515;SDS011;17297;54.022;10.760;2022-12-31T03:22:08;2.95;;;2.72;;
30515;SDS011;17297;54.022;10.760;2022-12-31T03:24:51;2.63;;;2.08;;
30515;SDS011;17297;54.022;10.760;2022-12-31T03:27:36;3.60;;;2.60;;
30515;SDS011;17297;54.022;10.760;2022-12-31T03:30:02;2.22;;;2.03;;
30515;SDS011;17297;54.022;10.760;2022-12-31T03:32:28;2.75;;;2.13;;
30515;SDS011;17297;54.022;10.760;2022-12-31T03:34:53;2.75;;;2.00;;
30515;SDS011;17297;54.022;10.760;2022-12-31T03:37:20;2.97;;;2.17;;
30515;SDS011;17297;54.022;10.760;2022-12-31T03:39:46;3.50;;;2.22;;
30515;SDS011;17297;54.022;10.760;2022-12-31T03:42:11;2.90;;;2.28;;
30515;SDS011;17297;54.022;10.760;2022-12-31T03:44:36;3.33;;;2.35;;
30515;SDS011;17297;54.022;10.760;2022-12-31T03:47:02;2.88;;;2.58;;
30515;SDS011;17297;54.022;10.760;2022-12-31T03:49:28;3.50;;;2.50;;
30515;SDS011;17297;54.022;10.760;2022-12-31T03:51:53;3.22;;;2.72;;
30515;SDS011;17297;54.022;10.760;2022-12-31T03:54:19;2.95;;;2.60;;
30515;SDS011;17297;54.022;10.760;2022-12-31T03:56:44;4.10;;;2.83;;
30515;SDS011;17297;54.022;10.760;2022-12-31T03:59:10;3.72;;;3.10;;
30515;SDS011;17297;54.022;10.760;2022-12-31T04:01:35;2.88;;;2.58;;
30515;SDS011;17297;54.022;10.760;2022-12-31T04:04:01;3.42;;;3.00;;
30515;SDS011;17297;54.022;10.760;2022-12-31T04:06:26;2.90;;;2.70;;
30515;SDS011;17297;54.022;10.760;2022-12-31T04:08:51;3.83;;;2.90;;
30515;SDS011;17297;54.022;10.760;2022-12-31T04:11:17;3.45;;;3.15;;
30515;SDS011;17297;54.022;10.760;2022-12-31T04:13:42;3.78;;;3.00;;
30515;SDS011;17297;54.022;10.760;2022-12-31T04:16:08;3.22;;;2.75;;
30515;SDS011;17297;54.022;10.760;2022-12-31T04:18:33;3.10;;;2.70;;
30515;SDS011;17297;54.022;10.760;2022-12-31T04:21:02;2.65;;;2.45;;
30515;SDS011;17297;54.022;10.760;2022-12-31T04:23:29;2.55;;;2.35;;
30515;SDS011;17297;54.022;10.760;2022-12-31T04:25:55;4.07;;;3.08;;
30515;SDS011;17297;54.022;10.760;2022-12-31T04:28:22;3.80;;;2.83;;
30515;SDS011;17297;54.022;10.760;2022-12-31T04:30:47;2.53;;;2.33;;
30515;SDS011;17297;54.022;10.760;2022-12-31T04:33:16;3.38;;;2.20;;
30515;SDS011;17297;54.022;10.760;2022-12-31T04:35:41;3.20;;;2.08;;
30515;SDS011;17297;54.022;10.760;2022-12-31T04:38:07;3.00;;;2.42;;
30515;SDS011;17297;54.022;10.760;2022-12-31T04:40:32;2.63;;;2.20;;
30515;SDS011;17297;54.022;10.760;2022-12-31T04:42:57;3.53;;;2.25;;
30515;SDS011;17297;54.022;10.760;2022-12-31T04:45:23;2.55;;;1.90;;
30515;SDS011;17297;54.022;10.760;2022-12-31T04:47:48;2.85;;;2.13;;
30515;SDS011;17297;54.022;10.760;2022-12-31T04:50:14;2.00;;;1.80;;
30515;SDS011;17297;54.022;10.760;2022-12-31T04:52:39;2.17;;;1.75;;
30515;SDS011;17297;54.022;10.760;2022-12-31T04:55:05;2.70;;;2.38;;
30515;SDS011;17297;54.022;10.760;2022-12-31T04:57:30;1.80;;;1.70;;
30515;SDS011;17297;54.022;10.760;2022-12-31T04:59:56;3.17;;;1.73;;
30515;SDS011;17297;54.022;10.760;2022-12-31T05:02:21;2.10;;;1.60;;
30515;SDS011;17297;54.022;10.760;2022-12-31T05:04:47;1.95;;;1.80;;
30515;SDS011;17297;54.022;10.760;2022-12-31T05:07:12;2.15;;;1.95;;
30515;SDS011;17297;54.022;10.760;2022-12-31T05:09:38;2.13;;;1.92;;
30515;SDS011;17297;54.022;10.760;2022-12-31T05:12:03;2.10;;;1.90;;
30515;SDS011;17297;54.022;10.760;2022-12-31T05:14:29;2.15;;;1.90;;
30515;SDS011;17297;54.022;10.760;2022-12-31T05:16:54;2.08;;;1.88;;
30515;SDS011;17297;54.022;10.760;2022-12-31T05:19:20;2.58;;;2.38;;
30515;SDS011;17297;54.022;10.760;2022-12-31T05:21:45;2.40;;;2.20;;
30515;SDS011;17297;54.022;10.760;2022-12-31T05:24:31;2.28;;;2.08;;
30515;SDS011;17297;54.022;10.760;2022-12-31T05:26:56;2.40;;;1.80;;
30515;SDS011;17297;54.022;10.760;2022-12-31T05:29:22;2.85;;;2.10;;
30515;SDS011;17297;54.022;10.760;2022-12-31T05:31:47;3.80;;;2.47;;
30515;SDS011;17297;54.022;10.760;2022-12-31T05:34:13;2.03;;;1.92;;
30515;SDS011;17297;54.022;10.760;2022-12-31T05:36:38;2.75;;;2.08;;
30515;SDS011;17297;54.022;10.760;2022-12-31T05:39:04;2.40;;;2.20;;
30515;SDS011;17297;54.022;10.760;2022-12-31T05:41:29;2.63;;;2.20;;
30515;SDS011;17297;54.022;10.760;2022-12-31T05:43:54;2.05;;;1.85;;
30515;SDS011;17297;54.022;10.760;2022-12-31T05:46:20;2.13;;;1.95;;
30515;SDS011;17297;54.022;10.760;2022-12-31T05:48:45;2.88;;;1.90;;
30515;SDS011;17297;54.022;10.760;2022-12-31T05:51:11;1.88;;;1.70;;
30515;SDS011;17297;54.022;10.760;2022-12-31T05:53:37;2.40;;;1.73;;
30515;SDS011;17297;54.022;10.760;2022-12-31T05:56:02;2.17;;;1.70;;
30515;SDS011;17297;54.022;10.760;2022-12-31T05:58:28;1.65;;;1.42;;
30515;SDS011;17297;54.022;10.760;2022-12-31T06:00:53;1.60;;;1.42;;
30515;SDS011;17297;54.022;10.760;2022-12-31T06:03:19;2.25;;;2.05;;
30515;SDS011;17297;54.022;10.760;2022-12-31T06:05:44;2.67;;;1.75;;
30515;SDS011;17297;54.022;10.760;2022-12-31T06:08:10;2.00;;;1.80;;
30515;SDS011;17297;54.022;10.760;2022-12-31T06:10:36;2.78;;;1.98;;
30515;SDS011;17297;54.022;10.760;2022-12-31T06:13:03;2.30;;;1.77;;
30515;SDS011;17297;54.022;10.760;2022-12-31T06:15:29;2.08;;;1.88;;
30515;SDS011;17297;54.022;10.760;2022-12-31T06:17:54;2.80;;;1.80;;
30515;SDS011;17297;54.022;10.760;2022-12-31T06:20:20;1.95;;;1.75;;
30515;SDS011;17297;54.022;10.760;2022-12-31T06:22:45;1.83;;;1.70;;
30515;SDS011;17297;54.022;10.760;2022-12-31T06:25:11;1.70;;;1.60;;
30515;SDS011;17297;54.022;10.760;2022-12-31T06:27:36;1.50;;;1.40;;
30515;SDS011;17297;54.022;10.760;2022-12-31T06:30:02;1.58;;;1.48;;
30515;SDS011;17297;54.022;10.760;2022-12-31T06:32:29;1.52;;;1.42;;
30515;SDS011;17297;54.022;10.760;2022-12-31T06:34:55;1.75;;;1.65;;
30515;SDS011;17297;54.022;10.760;2022-12-31T06:37:20;2.05;;;1.60;;
30515;SDS011;17297;54.022;10.760;2022-12-31T06:39:45;1.98;;;1.60;;
30515;SDS011;17297;54.022;10.760;2022-12-31T06:42:12;1.75;;;1.65;;
30515;SDS011;17297;54.022;10.760;2022-12-31T06:44:38;1.40;;;1.30;;
30515;SDS011;17297;54.022;10.760;2022-12-31T06:47:03;1.50;;;1.40;;
30515;SDS011;17297;54.022;10.760;2022-12-31T06:49:29;1.55;;;1.45;;
30515;SDS011;17297;54.022;10.760;2022-12-31T06:51:54;2.15;;;1.58;;
30515;SDS011;17297;54.022;10.760;2022-12-31T06:54:20;2.03;;;1.55;;
30515;SDS011;17297;54.022;10.760;2022-12-31T06:56:45;1.65;;;1.55;;
30515;SDS011;17297;54.022;10.760;2022-12-31T06:59:14;2.35;;;1.58;;
30515;SDS011;17297;54.022;10.760;2022-12-31T07:01:52;1.38;;;1.27;;
30515;SDS011;17297;54.022;10.760;2022-12-31T07:15:18;1.52;;;1.33;;
30515;SDS011;17297;54.022;10.760;2022-12-31T07:18:02;1.40;;;1.30;;
30515;SDS011;17297;54.022;10.760;2022-12-31T07:20:53;1.23;;;1.10;;
30515;SDS011;17297;54.022;10.760;2022-12-31T07:23:19;1.38;;;1.27;;
30515;SDS011;17297;54.022;10.760;2022-12-31T07:25:56;1.70;;;1.60;;
30515;SDS011;17297;54.022;10.760;2022-12-31T07:31:25;1.48;;;1.38;;
30515;SDS011;17297;54.022;10.760;2022-12-31T07:34:05;1.80;;;1.60;;
30515;SDS011;17297;54.022;10.760;2022-12-31T07:41:57;1.27;;;1.17;;
30515;SDS011;17297;54.022;10.760;2022-12-31T07:46:56;1.80;;;1.55;;
30515;SDS011;17297;54.022;10.760;2022-12-31T07:49:24;1.80;;;1.58;;
30515;SDS011;17297;54.022;10.760;2022-12-31T07:51:51;1.42;;;1.33;;
30515;SDS011;17297;54.022;10.760;2022-12-31T07:54:17;1.75;;;1.55;;
30515;SDS011;17297;54.022;10.760;2022-12-31T07:56:43;1.30;;;1.20;;
30515;SDS011;17297;54.022;10.760;2022-12-31T08:02:17;1.60;;;1.40;;
30515;SDS011;17297;54.022;10.760;2022-12-31T08:08:10;1.30;;;1.13;;
30515;SDS011;17297;54.022;10.760;2022-12-31T08:11:24;1.30;;;1.20;;
30515;SDS011;17297;54.022;10.760;2022-12-31T08:13:57;1.42;;;1.15;;
30515;SDS011;17297;54.022;10.760;2022-12-31T08:16:25;1.23;;;0.88;;
30515;SDS011;17297;54.022;10.760;2022-12-31T08:18:51;0.80;;;0.80;;
30515;SDS011;17297;54.022;10.760;2022-12-31T08:21:27;1.05;;;0.82;;
30515;SDS011;17297;54.022;10.760;2022-12-31T08:24:05;1.13;;;1.02;;
30515;SDS011;17297;54.022;10.760;2022-12-31T08:27:32;0.60;;;0.60;;
30515;SDS011;17297;54.022;10.760;2022-12-31T08:29:58;0.80;;;0.73;;
30515;SDS011;17297;54.022;10.760;2022-12-31T08:32:41;1.08;;;1.00;;
30515;SDS011;17297;54.022;10.760;2022-12-31T08:35:40;0.80;;;0.80;;
30515;SDS011;17297;54.022;10.760;2022-12-31T08:41:00;0.73;;;0.60;;
30515;SDS011;17297;54.022;10.760;2022-12-31T08:46:04;0.63;;;0.63;;
30515;SDS011;17297;54.022;10.760;2022-12-31T08:48:39;0.85;;;0.80;;
30515;SDS011;17297;54.022;10.760;2022-12-31T08:51:24;0.60;;;0.60;;
30515;SDS011;17297;54.022;10.760;2022-12-31T08:53:50;0.80;;;0.80;;
30515;SDS011;17297;54.022;10.760;2022-12-31T08:58:59;0.70;;;0.70;;
30515;SDS011;17297;54.022;10.760;2022-12-31T09:01:38;0.60;;;0.50;;
30515;SDS011;17297;54.022;10.760;2022-12-31T09:05:04;0.40;;;0.40;;
30515;SDS011;17297;54.022;10.760;2022-12-31T09:07:30;0.52;;;0.52;;
30515;SDS011;17297;54.022;10.760;2022-12-31T09:15:29;0.60;;;0.60;;
30515;SDS011;17297;54.022;10.760;2022-12-31T09:18:01;0.60;;;0.60;;
30515;SDS011;17297;54.022;10.760;2022-12-31T09:20:32;0.60;;;0.60;;
30515;SDS011;17297;54.022;10.760;2022-12-31T09:22:59;0.55;;;0.55;;
30515;SDS011;17297;54.022;10.760;2022-12-31T09:25:27;0.50;;;0.50;;
30515;SDS011;17297;54.022;10.760;2022-12-31T09:30:47;0.60;;;0.60;;
30515;SDS011;17297;54.022;10.760;2022-12-31T09:33:35;0.55;;;0.40;;
30515;SDS011;17297;54.022;10.760;2022-12-31T09:52:32;1.27;;;0.60;;
30515;SDS011;17297;54.022;10.760;2022-12-31T10:00:19;0.88;;;0.88;;
30515;SDS011;17297;54.022;10.760;2022-12-31T10:03:03;3.70;;;1.00;;
30515;SDS011;17297;54.022;10.760;2022-12-31T10:05:49;0.80;;;0.80;;
30515;SDS011;17297;54.022;10.760;2022-12-31T10:08:37;0.98;;;0.80;;
30515;SDS011;17297;54.022;10.760;2022-12-31T10:17:11;1.30;;;0.60;;
30515;SDS011;17297;54.022;10.760;2022-12-31T10:26:10;1.02;;;0.68;;
30515;SDS011;17297;54.022;10.760;2022-12-31T10:37:02;0.65;;;0.60;;
30515;SDS011;17297;54.022;10.760;2022-12-31T10:45:15;0.43;;;0.43;;
30515;SDS011;17297;54.022;10.760;2022-12-31T10:51:06;1.02;;;0.80;;
30515;SDS011;17297;54.022;10.760;2022-12-31T11:02:14;1.27;;;0.73;;
30515;SDS011;17297;54.022;10.760;2022-12-31T11:11:03;0.70;;;0.70;;
30515;SDS011;17297;54.022;10.760;2022-12-31T11:27:48;0.90;;;0.90;;
30515;SDS011;17297;54.022;10.760;2022-12-31T11:30:23;0.80;;;0.80;;
30515;SDS011;17297;54.022;10.760;2022-12-31T11:35:54;1.02;;;0.90;;
30515;SDS011;17297;54.022;10.760;2022-12-31T11:38:28;0.90;;;0.90;;
30515;SDS011;17297;54.022;10.760;2022-12-31T11:49:16;1.98;;;0.90;;
30515;SDS011;17297;54.022;10.760;2022-12-31T11:58:01;1.03;;;0.93;;
30515;SDS011;17297;54.022;10.760;2022-12-31T12:03:24;0.65;;;0.65;;
30515;SDS011;17297;54.022;10.760;2022-12-31T12:05:50;0.80;;;0.80;;
30515;SDS011;17297;54.022;10.760;2022-12-31T12:08:16;0.70;;;0.68;;
30515;SDS011;17297;54.022;10.760;2022-12-31T12:10:49;0.80;;;0.80;;
30515;SDS011;17297;54.022;10.760;2022-12-31T12:15:47;0.70;;;0.70;;
30515;SDS011;17297;54.022;10.760;2022-12-31T12:18:29;0.73;;;0.73;;
30515;SDS011;17297;54.022;10.760;2022-12-31T12:21:09;0.70;;;0.70;;
30515;SDS011;17297;54.022;10.760;2022-12-31T12:23:36;0.88;;;0.88;;
30515;SDS011;17297;54.022;10.760;2022-12-31T12:26:03;0.68;;;0.68;;
30515;SDS011;17297;54.022;10.760;2022-12-31T12:28:30;0.77;;;0.75;;
30515;SDS011;17297;54.022;10.760;2022-12-31T12:31:13;0.80;;;0.80;;
30515;SDS011;17297;54.022;10.760;2022-12-31T12:33:44;0.80;;;0.80;;
30515;SDS011;17297;54.022;10.760;2022-12-31T12:36:12;0.68;;;0.68;;
30515;SDS011;17297;54.022;10.760;2022-12-31T12:38:39;0.60;;;0.60;;
30515;SDS011;17297;54.022;10.760;2022-12-31T12:41:08;0.65;;;0.65;;
30515;SDS011;17297;54.022;10.760;2022-12-31T12:43:37;1.33;;;0.73;;
30515;SDS011;17297;54.022;10.760;2022-12-31T12:46:19;1.27;;;1.17;;
30515;SDS011;17297;54.022;10.760;2022-12-31T12:48:54;0.70;;;0.70;;
30515;SDS011;17297;54.022;10.760;2022-12-31T12:51:28;0.98;;;0.90;;
30515;SDS011;17297;54.022;10.760;2022-12-31T13:07:51;1.10;;;1.00;;
30515;SDS011;17297;54.022;10.760;2022-12-31T13:10:32;0.98;;;0.63;;
30515;SDS011;17297;54.022;10.760;2022-12-31T13:18:57;0.73;;;0.70;;
30515;SDS011;17297;54.022;10.760;2022-12-31T13:29:23;1.48;;;0.70;;
30515;SDS011;17297;54.022;10.760;2022-12-31T13:31:55;1.10;;;0.82;;
30515;SDS011;17297;54.022;10.760;2022-12-31T13:34:24;0.82;;;0.82;;
30515;SDS011;17297;54.022;10.760;2022-12-31T13:36:54;1.00;;;0.70;;
30515;SDS011;17297;54.022;10.760;2022-12-31T13:39:23;0.60;;;0.60;;
30515;SDS011;17297;54.022;10.760;2022-12-31T13:44:44;0.70;;;0.70;;
30515;SDS011;17297;54.022;10.760;2022-12-31T13:47:19;1.58;;;0.75;;
30515;SDS011;17297;54.022;10.760;2022-12-31T13:52:29;0.95;;;0.80;;
30515;SDS011;17297;54.022;10.760;2022-12-31T13:55:16;2.50;;;1.52;;
30515;SDS011;17297;54.022;10.760;2022-12-31T14:00:22;1.17;;;0.95;;
30515;SDS011;17297;54.022;10.760;2022-12-31T14:05:32;0.75;;;0.70;;
30515;SDS011;17297;54.022;10.760;2022-12-31T14:08:06;0.68;;;0.63;;
30515;SDS011;17297;54.022;10.760;2022-12-31T14:21:27;0.52;;;0.52;;
30515;SDS011;17297;54.022;10.760;2022-12-31T14:27:07;1.20;;;0.73;;
30515;SDS011;17297;54.022;10.760;2022-12-31T14:29:47;0.77;;;0.60;;
30515;SDS011;17297;54.022;10.760;2022-12-31T14:32:21;2.33;;;0.80;;
30515;SDS011;17297;54.022;10.760;2022-12-31T14:37:58;2.88;;;0.65;;
30515;SDS011;17297;54.022;10.760;2022-12-31T14:43:24;1.02;;;0.80;;
30515;SDS011;17297;54.022;10.760;2022-12-31T14:51:29;0.70;;;0.70;;
30515;SDS011;17297;54.022;10.760;2022-12-31T14:53:56;0.93;;;0.70;;
30515;SDS011;17297;54.022;10.760;2022-12-31T15:01:47;0.60;;;0.60;;
30515;SDS011;17297;54.022;10.760;2022-12-31T15:04:26;0.60;;;0.60;;
30515;SDS011;17297;54.022;10.760;2022-12-31T15:07:01;0.50;;;0.50;;
30515;SDS011;17297;54.022;10.760;2022-12-31T15:23:36;0.70;;;0.70;;
30515;SDS011;17297;54.022;10.760;2022-12-31T15:26:04;0.55;;;0.50;;
30515;SDS011;17297;54.022;10.760;2022-12-31T15:28:34;0.63;;;0.63;;
30515;SDS011;17297;54.022;10.760;2022-12-31T15:41:43;0.77;;;0.60;;
30515;SDS011;17297;54.022;10.760;2022-12-31T15:47:53;0.73;;;0.73;;
30515;SDS011;17297;54.022;10.760;2022-12-31T15:50:07;0.90;;;0.85;;
30515;SDS011;17297;54.022;10.760;2022-12-31T15:52:41;1.55;;;1.20;;
30515;SDS011;17297;54.022;10.760;2022-12-31T15:55:14;1.83;;;1.13;;
30515;SDS011;17297;54.022;10.760;2022-12-31T15:58:15;0.82;;;0.82;;
30515;SDS011;17297;54.022;10.760;2022-12-31T16:03:33;1.70;;;1.30;;
30515;SDS011;17297;54.022;10.760;2022-12-31T16:06:00;0.88;;;0.88;;
30515;SDS011;17297;54.022;10.760;2022-12-31T16:08:29;0.70;;;0.60;;
30515;SDS011;17297;54.022;10.760;2022-12-31T16:10:57;1.13;;;1.00;;
30515;SDS011;17297;54.022;10.760;2022-12-31T16:13:23;0.90;;;0.90;;
30515;SDS011;17297;54.022;10.760;2022-12-31T16:15:50;2.15;;;1.02;;
30515;SDS011;17297;54.022;10.760;2022-12-31T16:18:21;0.73;;;0.70;;
30515;SDS011;17297;54.022;10.760;2022-12-31T16:20:47;1.15;;;1.00;;
30515;SDS011;17297;54.022;10.760;2022-12-31T16:25:45;1.45;;;1.15;;
30515;SDS011;17297;54.022;10.760;2022-12-31T16:28:12;1.10;;;1.02;;
30515;SDS011;17297;54.022;10.760;2022-12-31T16:30:43;1.20;;;1.10;;
30515;SDS011;17297;54.022;10.760;2022-12-31T16:33:12;1.13;;;1.02;;
30515;SDS011;17297;54.022;10.760;2022-12-31T16:35:39;1.30;;;0.90;;
30515;SDS011;17297;54.022;10.760;2022-12-31T16:38:15;1.05;;;0.95;;
30515;SDS011;17297;54.022;10.760;2022-12-31T16:41:27;1.70;;;1.60;;
30515;SDS011;17297;54.022;10.760;2022-12-31T16:43:28;1.48;;;1.38;;
30515;SDS011;17297;54.022;10.760;2022-12-31T16:46:32;1.67;;;1.40;;
30515;SDS011;17297;54.022;10.760;2022-12-31T16:49:02;1.98;;;1.30;;
30515;SDS011;17297;54.022;10.760;2022-12-31T16:51:44;1.25;;;1.15;;
30515;SDS011;17297;54.022;10.760;2022-12-31T16:54:16;2.45;;;1.27;;
30515;SDS011;17297;54.022;10.760;2022-12-31T16:56:44;1.42;;;1.08;;
30515;SDS011;17297;54.022;10.760;2022-12-31T17:01:58;5.45;;;2.83;;
30515;SDS011;17297;54.022;10.760;2022-12-31T17:04:25;2.88;;;1.95;;
30515;SDS011;17297;54.022;10.760;2022-12-31T17:06:51;2.80;;;1.38;;
30515;SDS011;17297;54.022;10.760;2022-12-31T17:09:21;2.70;;;1.70;;
30515;SDS011;17297;54.022;10.760;2022-12-31T17:11:55;2.55;;;1.40;;
30515;SDS011;17297;54.022;10.760;2022-12-31T17:14:33;1.80;;;1.70;;
30515;SDS011;17297;54.022;10.760;2022-12-31T17:17:24;1.67;;;1.42;;
30515;SDS011;17297;54.022;10.760;2022-12-31T17:19:56;3.00;;;1.60;;
30515;SDS011;17297;54.022;10.760;2022-12-31T17:22:32;3.08;;;2.30;;
30515;SDS011;17297;54.022;10.760;2022-12-31T17:25:00;2.28;;;2.08;;
30515;SDS011;17297;54.022;10.760;2022-12-31T17:27:28;3.67;;;3.00;;
30515;SDS011;17297;54.022;10.760;2022-12-31T17:30:04;2.53;;;1.90;;
30515;SDS011;17297;54.022;10.760;2022-12-31T17:32:53;2.53;;;1.90;;
30515;SDS011;17297;54.022;10.760;2022-12-31T17:35:28;2.03;;;1.60;;
30515;SDS011;17297;54.022;10.760;2022-12-31T17:43:32;1.80;;;1.60;;
30515;SDS011;17297;54.022;10.760;2022-12-31T17:45:59;1.70;;;1.60;;
30515;SDS011;17297;54.022;10.760;2022-12-31T17:48:25;2.35;;;1.35;;
30515;SDS011;17297;54.022;10.760;2022-12-31T17:53:21;2.85;;;2.22;;
30515;SDS011;17297;54.022;10.760;2022-12-31T17:55:50;2.03;;;1.60;;
30515;SDS011;17297;54.022;10.760;2022-12-31T18:01:06;1.90;;;1.52;;
30515;SDS011;17297;54.022;10.760;2022-12-31T18:03:33;1.52;;;1.30;;
30515;SDS011;17297;54.022;10.760;2022-12-31T18:05:59;1.95;;;1.73;;
30515;SDS011;17297;54.022;10.760;2022-12-31T18:08:24;1.92;;;1.77;;
30515;SDS011;17297;54.022;10.760;2022-12-31T18:10:50;2.22;;;1.60;;
30515;SDS011;17297;54.022;10.760;2022-12-31T18:13:26;1.83;;;1.52;;
30515;SDS011;17297;54.022;10.760;2022-12-31T18:15:52;1.87;;;1.40;;
30515;SDS011;17297;54.022;10.760;2022-12-31T18:18:23;2.40;;;1.50;;
30515;SDS011;17297;54.022;10.760;2022-12-31T18:20:51;10.90;;;9.32;;
30515;SDS011;17297;54.022;10.760;2022-12-31T18:23:42;8.95;;;7.78;;
30515;SDS011;17297;54.022;10.760;2022-12-31T18:26:12;4.70;;;4.18;;
30515;SDS011;17297;54.022;10.760;2022-12-31T18:28:39;3.88;;;2.35;;
30515;SDS011;17297;54.022;10.760;2022-12-31T18:31:04;2.45;;;1.70;;
30515;SDS011;17297;54.022;10.760;2022-12-31T18:33:30;3.35;;;2.28;;
30515;SDS011;17297;54.022;10.760;2022-12-31T18:35:55;2.97;;;1.95;;
30515;SDS011;17297;54.022;10.760;2022-12-31T18:38:21;3.00;;;2.30;;
30515;SDS011;17297;54.022;10.760;2022-12-31T18:40:51;3.53;;;2.10;;
30515;SDS011;17297;54.022;10.760;2022-12-31T18:43:19;3.50;;;2.67;;
30515;SDS011;17297;54.022;10.760;2022-12-31T18:45:46;4.63;;;2.00;;
30515;SDS011;17297;54.022;10.760;2022-12-31T18:48:12;4.13;;;1.52;;
30515;SDS011;17297;54.022;10.760;2022-12-31T18:50:38;1.70;;;1.60;;
30515;SDS011;17297;54.022;10.760;2022-12-31T18:53:05;3.47;;;1.73;;
30515;SDS011;17297;54.022;10.760;2022-12-31T18:55:38;3.85;;;2.00;;
30515;SDS011;17297;54.022;10.760;2022-12-31T18:58:05;1.88;;;1.50;;
30515;SDS011;17297;54.022;10.760;2022-12-31T19:00:31;2.05;;;1.48;;
30515;SDS011;17297;54.022;10.760;2022-12-31T19:02:57;2.15;;;1.35;;
30515;SDS011;17297;54.022;10.760;2022-12-31T19:05:25;2.33;;;1.73;;
30515;SDS011;17297;54.022;10.760;2022-12-31T19:07:55;3.15;;;1.50;;
30515;SDS011;17297;54.022;10.760;2022-12-31T19:10:21;2.75;;;1.30;;
30515;SDS011;17297;54.022;10.760;2022-12-31T19:12:48;2.45;;;1.38;;
30515;SDS011;17297;54.022;10.760;2022-12-31T19:18:02;3.78;;;2.05;;
30515;SDS011;17297;54.022;10.760;2022-12-31T19:20:29;3.55;;;1.85;;
30515;SDS011;17297;54.022;10.760;2022-12-31T19:22:55;3.33;;;1.95;;
30515;SDS011;17297;54.022;10.760;2022-12-31T19:25:25;2.33;;;2.00;;
30515;SDS011;17297;54.022;10.760;2022-12-31T19:27:52;2.83;;;2.30;;
30515;SDS011;17297;54.022;10.760;2022-12-31T19:30:22;3.00;;;2.00;;
30515;SDS011;17297;54.022;10.760;2022-12-31T19:32:50;3.15;;;2.08;;
30515;SDS011;17297;54.022;10.760;2022-12-31T19:35:16;2.35;;;1.60;;
30515;SDS011;17297;54.022;10.760;2022-12-31T19:37:44;2.70;;;2.30;;
30515;SDS011;17297;54.022;10.760;2022-12-31T19:40:12;2.60;;;1.98;;
30515;SDS011;17297;54.022;10.760;2022-12-31T19:42:40;2.47;;;2.10;;
30515;SDS011;17297;54.022;10.760;2022-12-31T19:45:28;3.78;;;2.38;;
30515;SDS011;17297;54.022;10.760;2022-12-31T19:47:53;3.28;;;2.40;;